sensor_id;sensor_type;location;lat;lon;timestamp;P1;durP1;ratioP1;P2;durP2;ratioP2
81152;SDS011;70630;45.546;10.198;2023-07-20T00:01:56;12.95;;;5.72;;
81152;SDS011;70630;45.546;10.198;2023-07-20T00:04:22;11.55;;;5.20;;
81152;SDS011;70630;45.546;10.198;2023-07-20T00:06:48;10.30;;;5.00;;
81152;SDS011;70630;45.546;10.198;2023-07-20T00:09:14;9.90;;;5.00;;
81152;SDS011;70630;45.546;10.198;2023-07-20T00:11:47;12.52;;;5.13;;
81152;SDS011;70630;45.546;10.198;2023-07-20T00:14:13;11.10;;;5.15;;
81152;SDS011;70630;45.546;10.198;2023-07-20T00:16:39;10.35;;;5.22;;
81152;SDS011;70630;45.546;10.198;2023-07-20T00:19:05;11.05;;;5.28;;
81152;SDS011;70630;45.546;10.198;2023-07-20T00:21:33;11.10;;;5.43;;
81152;SDS011;70630;45.546;10.198;2023-07-20T00:23:59;10.75;;;5.25;;
81152;SDS011;70630;45.546;10.198;2023-07-20T00:26:25;12.18;;;5.72;;
81152;SDS011;70630;45.546;10.198;2023-07-20T00:28:51;11.27;;;5.45;;
81152;SDS011;70630;45.546;10.198;2023-07-20T00:31:17;10.77;;;5.60;;
81152;SDS011;70630;45.546;10.198;2023-07-20T00:33:43;12.77;;;5.75;;
81152;SDS011;70630;45.546;10.198;2023-07-20T00:36:09;14.60;;;5.60;;
81152;SDS011;70630;45.546;10.198;2023-07-20T00:38:35;14.10;;;5.78;;
81152;SDS011;70630;45.546;10.198;2023-07-20T00:41:01;12.48;;;5.65;;
81152;SDS011;70630;45.546;10.198;2023-07-20T00:43:28;11.65;;;5.85;;
81152;SDS011;70630;45.546;10.198;2023-07-20T00:45:56;12.55;;;5.65;;
81152;SDS011;70630;45.546;10.198;2023-07-20T00:48:22;12.80;;;5.80;;
81152;SDS011;70630;45.546;10.198;2023-07-20T00:50:49;12.68;;;5.95;;
81152;SDS011;70630;45.546;10.198;2023-07-20T00:53:15;11.57;;;5.60;;
81152;SDS011;70630;45.546;10.198;2023-07-20T00:55:41;13.07;;;6.43;;
81152;SDS011;70630;45.546;10.198;2023-07-20T00:58:08;13.15;;;6.35;;
81152;SDS011;70630;45.546;10.198;2023-07-20T01:00:34;10.65;;;6.38;;
81152;SDS011;70630;45.546;10.198;2023-07-20T01:03:00;11.98;;;6.13;;
81152;SDS011;70630;45.546;10.198;2023-07-20T01:05:48;10.50;;;5.65;;
81152;SDS011;70630;45.546;10.198;2023-07-20T01:08:24;12.80;;;5.75;;
81152;SDS011;70630;45.546;10.198;2023-07-20T01:10:57;11.27;;;5.75;;
81152;SDS011;70630;45.546;10.198;2023-07-20T01:13:23;10.85;;;5.75;;
81152;SDS011;70630;45.546;10.198;2023-07-20T01:15:54;14.45;;;6.10;;
81152;SDS011;70630;45.546;10.198;2023-07-20T01:18:23;11.55;;;5.85;;
81152;SDS011;70630;45.546;10.198;2023-07-20T01:20:49;11.32;;;6.15;;
81152;SDS011;70630;45.546;10.198;2023-07-20T01:23:32;13.65;;;6.13;;
81152;SDS011;70630;45.546;10.198;2023-07-20T01:26:12;10.70;;;6.18;;
81152;SDS011;70630;45.546;10.198;2023-07-20T01:31:30;11.18;;;5.90;;
81152;SDS011;70630;45.546;10.198;2023-07-20T01:33:57;10.75;;;5.47;;
81152;SDS011;70630;45.546;10.198;2023-07-20T01:36:24;13.85;;;6.32;;
81152;SDS011;70630;45.546;10.198;2023-07-20T01:38:55;12.40;;;6.35;;
81152;SDS011;70630;45.546;10.198;2023-07-20T01:41:21;11.00;;;6.15;;
81152;SDS011;70630;45.546;10.198;2023-07-20T01:43:47;11.30;;;6.40;;
81152;SDS011;70630;45.546;10.198;2023-07-20T01:46:13;10.77;;;6.20;;
81152;SDS011;70630;45.546;10.198;2023-07-20T01:48:39;11.57;;;6.35;;
81152;SDS011;70630;45.546;10.198;2023-07-20T01:51:05;10.45;;;5.75;;
81152;SDS011;70630;45.546;10.198;2023-07-20T01:53:31;11.02;;;6.10;;
81152;SDS011;70630;45.546;10.198;2023-07-20T01:55:58;10.73;;;6.10;;
81152;SDS011;70630;45.546;10.198;2023-07-20T01:58:24;13.07;;;5.65;;
81152;SDS011;70630;45.546;10.198;2023-07-20T02:00:50;11.38;;;5.43;;
81152;SDS011;70630;45.546;10.198;2023-07-20T02:03:16;9.73;;;5.10;;
81152;SDS011;70630;45.546;10.198;2023-07-20T02:05:42;10.73;;;5.30;;
81152;SDS011;70630;45.546;10.198;2023-07-20T02:08:09;12.23;;;5.07;;
81152;SDS011;70630;45.546;10.198;2023-07-20T02:10:35;11.45;;;5.25;;
81152;SDS011;70630;45.546;10.198;2023-07-20T02:13:01;10.73;;;5.20;;
81152;SDS011;70630;45.546;10.198;2023-07-20T02:15:27;9.65;;;4.85;;
81152;SDS011;70630;45.546;10.198;2023-07-20T02:17:53;10.63;;;5.18;;
81152;SDS011;70630;45.546;10.198;2023-07-20T02:20:19;9.88;;;5.40;;
81152;SDS011;70630;45.546;10.198;2023-07-20T02:22:46;10.30;;;5.30;;
81152;SDS011;70630;45.546;10.198;2023-07-20T02:25:12;9.82;;;5.32;;
81152;SDS011;70630;45.546;10.198;2023-07-20T02:27:38;10.95;;;5.35;;
81152;SDS011;70630;45.546;10.198;2023-07-20T02:30:04;10.45;;;5.03;;
81152;SDS011;70630;45.546;10.198;2023-07-20T02:32:32;12.63;;;5.57;;
81152;SDS011;70630;45.546;10.198;2023-07-20T02:34:58;11.80;;;5.00;;
81152;SDS011;70630;45.546;10.198;2023-07-20T02:37:24;11.93;;;5.63;;
81152;SDS011;70630;45.546;10.198;2023-07-20T02:39:50;9.68;;;5.63;;
81152;SDS011;70630;45.546;10.198;2023-07-20T02:42:19;10.52;;;5.78;;
81152;SDS011;70630;45.546;10.198;2023-07-20T02:44:47;11.02;;;6.00;;
81152;SDS011;70630;45.546;10.198;2023-07-20T02:47:13;10.68;;;5.80;;
81152;SDS011;70630;45.546;10.198;2023-07-20T02:49:42;9.95;;;5.57;;
81152;SDS011;70630;45.546;10.198;2023-07-20T02:52:08;11.38;;;6.25;;
81152;SDS011;70630;45.546;10.198;2023-07-20T02:54:34;10.10;;;5.80;;
81152;SDS011;70630;45.546;10.198;2023-07-20T02:57:00;11.35;;;6.35;;
81152;SDS011;70630;45.546;10.198;2023-07-20T02:59:27;11.48;;;5.82;;
81152;SDS011;70630;45.546;10.198;2023-07-20T03:01:54;12.55;;;5.95;;
81152;SDS011;70630;45.546;10.198;2023-07-20T03:04:20;11.93;;;6.22;;
81152;SDS011;70630;45.546;10.198;2023-07-20T03:06:46;10.75;;;5.65;;
81152;SDS011;70630;45.546;10.198;2023-07-20T03:09:12;10.55;;;5.88;;
81152;SDS011;70630;45.546;10.198;2023-07-20T03:11:38;10.18;;;5.90;;
81152;SDS011;70630;45.546;10.198;2023-07-20T03:14:04;11.55;;;6.03;;
81152;SDS011;70630;45.546;10.198;2023-07-20T03:16:31;12.07;;;6.20;;
81152;SDS011;70630;45.546;10.198;2023-07-20T03:18:59;10.80;;;5.85;;
81152;SDS011;70630;45.546;10.198;2023-07-20T03:21:25;13.35;;;6.47;;
81152;SDS011;70630;45.546;10.198;2023-07-20T03:23:51;11.73;;;6.25;;
81152;SDS011;70630;45.546;10.198;2023-07-20T03:26:17;13.20;;;6.10;;
81152;SDS011;70630;45.546;10.198;2023-07-20T03:28:43;13.52;;;6.93;;
81152;SDS011;70630;45.546;10.198;2023-07-20T03:31:09;13.23;;;6.90;;
81152;SDS011;70630;45.546;10.198;2023-07-20T03:33:35;13.32;;;6.78;;
81152;SDS011;70630;45.546;10.198;2023-07-20T03:36:01;12.52;;;6.82;;
81152;SDS011;70630;45.546;10.198;2023-07-20T03:38:28;14.20;;;6.75;;
81152;SDS011;70630;45.546;10.198;2023-07-20T03:40:55;12.85;;;7.47;;
81152;SDS011;70630;45.546;10.198;2023-07-20T03:43:21;10.65;;;6.82;;
81152;SDS011;70630;45.546;10.198;2023-07-20T03:45:48;12.82;;;7.22;;
81152;SDS011;70630;45.546;10.198;2023-07-20T03:48:19;14.15;;;7.90;;
81152;SDS011;70630;45.546;10.198;2023-07-20T03:50:45;13.70;;;7.57;;
81152;SDS011;70630;45.546;10.198;2023-07-20T03:53:12;13.57;;;7.75;;
81152;SDS011;70630;45.546;10.198;2023-07-20T03:55:39;15.68;;;7.70;;
81152;SDS011;70630;45.546;10.198;2023-07-20T03:58:06;14.18;;;7.60;;
81152;SDS011;70630;45.546;10.198;2023-07-20T04:00:33;13.45;;;7.50;;
81152;SDS011;70630;45.546;10.198;2023-07-20T04:02:59;15.27;;;7.80;;
81152;SDS011;70630;45.546;10.198;2023-07-20T04:05:25;14.35;;;7.72;;
81152;SDS011;70630;45.546;10.198;2023-07-20T04:07:52;14.43;;;7.75;;
81152;SDS011;70630;45.546;10.198;2023-07-20T04:10:18;15.32;;;7.75;;
81152;SDS011;70630;45.546;10.198;2023-07-20T04:12:44;16.23;;;8.27;;
81152;SDS011;70630;45.546;10.198;2023-07-20T04:15:12;13.00;;;7.90;;
81152;SDS011;70630;45.546;10.198;2023-07-20T04:17:38;15.93;;;8.38;;
81152;SDS011;70630;45.546;10.198;2023-07-20T04:20:05;13.40;;;7.78;;
81152;SDS011;70630;45.546;10.198;2023-07-20T04:22:32;13.60;;;8.02;;
81152;SDS011;70630;45.546;10.198;2023-07-20T04:24:58;12.57;;;7.97;;
81152;SDS011;70630;45.546;10.198;2023-07-20T04:27:24;16.05;;;8.52;;
81152;SDS011;70630;45.546;10.198;2023-07-20T04:29:50;14.07;;;8.07;;
81152;SDS011;70630;45.546;10.198;2023-07-20T04:32:16;15.93;;;8.00;;
81152;SDS011;70630;45.546;10.198;2023-07-20T04:34:42;14.13;;;8.27;;
81152;SDS011;70630;45.546;10.198;2023-07-20T04:37:08;15.98;;;7.88;;
81152;SDS011;70630;45.546;10.198;2023-07-20T04:39:34;14.35;;;7.55;;
81152;SDS011;70630;45.546;10.198;2023-07-20T04:42:00;14.02;;;7.53;;
81152;SDS011;70630;45.546;10.198;2023-07-20T04:44:26;14.23;;;7.18;;
81152;SDS011;70630;45.546;10.198;2023-07-20T04:46:52;14.63;;;7.03;;
81152;SDS011;70630;45.546;10.198;2023-07-20T04:49:18;11.95;;;6.80;;
81152;SDS011;70630;45.546;10.198;2023-07-20T04:51:45;12.73;;;6.72;;
81152;SDS011;70630;45.546;10.198;2023-07-20T04:54:11;14.32;;;6.95;;
81152;SDS011;70630;45.546;10.198;2023-07-20T04:56:37;13.43;;;6.90;;
81152;SDS011;70630;45.546;10.198;2023-07-20T04:59:03;14.35;;;6.68;;
81152;SDS011;70630;45.546;10.198;2023-07-20T05:01:29;13.40;;;6.70;;
81152;SDS011;70630;45.546;10.198;2023-07-20T05:03:55;15.00;;;6.90;;
81152;SDS011;70630;45.546;10.198;2023-07-20T05:06:21;14.30;;;6.63;;
81152;SDS011;70630;45.546;10.198;2023-07-20T05:08:47;14.38;;;6.72;;
81152;SDS011;70630;45.546;10.198;2023-07-20T05:11:13;12.02;;;6.72;;
81152;SDS011;70630;45.546;10.198;2023-07-20T05:13:40;14.55;;;7.10;;
81152;SDS011;70630;45.546;10.198;2023-07-20T05:16:06;11.52;;;6.65;;
81152;SDS011;70630;45.546;10.198;2023-07-20T05:18:32;15.13;;;6.72;;
81152;SDS011;70630;45.546;10.198;2023-07-20T05:20:58;15.32;;;6.50;;
81152;SDS011;70630;45.546;10.198;2023-07-20T05:23:24;11.02;;;6.53;;
81152;SDS011;70630;45.546;10.198;2023-07-20T05:25:57;11.50;;;6.65;;
81152;SDS011;70630;45.546;10.198;2023-07-20T05:28:24;15.50;;;7.28;;
81152;SDS011;70630;45.546;10.198;2023-07-20T05:30:51;13.50;;;7.45;;
81152;SDS011;70630;45.546;10.198;2023-07-20T05:33:20;15.52;;;8.10;;
81152;SDS011;70630;45.546;10.198;2023-07-20T05:35:47;17.00;;;8.90;;
81152;SDS011;70630;45.546;10.198;2023-07-20T05:38:13;15.60;;;8.27;;
81152;SDS011;70630;45.546;10.198;2023-07-20T05:40:40;13.73;;;7.68;;
81152;SDS011;70630;45.546;10.198;2023-07-20T05:43:06;14.65;;;8.10;;
81152;SDS011;70630;45.546;10.198;2023-07-20T05:45:32;14.50;;;7.75;;
81152;SDS011;70630;45.546;10.198;2023-07-20T05:48:02;12.32;;;7.07;;
81152;SDS011;70630;45.546;10.198;2023-07-20T05:50:28;12.45;;;7.28;;
81152;SDS011;70630;45.546;10.198;2023-07-20T05:52:57;14.30;;;7.32;;
81152;SDS011;70630;45.546;10.198;2023-07-20T05:55:23;13.90;;;7.10;;
81152;SDS011;70630;45.546;10.198;2023-07-20T05:57:49;14.65;;;7.30;;
81152;SDS011;70630;45.546;10.198;2023-07-20T06:00:15;13.40;;;7.10;;
81152;SDS011;70630;45.546;10.198;2023-07-20T06:02:44;12.38;;;6.65;;
81152;SDS011;70630;45.546;10.198;2023-07-20T06:05:10;13.93;;;6.70;;
81152;SDS011;70630;45.546;10.198;2023-07-20T06:07:37;11.90;;;6.50;;
81152;SDS011;70630;45.546;10.198;2023-07-20T06:10:03;12.57;;;6.60;;
81152;SDS011;70630;45.546;10.198;2023-07-20T06:12:29;13.18;;;6.70;;
81152;SDS011;70630;45.546;10.198;2023-07-20T06:14:55;13.30;;;7.18;;
81152;SDS011;70630;45.546;10.198;2023-07-20T06:17:24;13.38;;;7.07;;
81152;SDS011;70630;45.546;10.198;2023-07-20T06:19:50;14.73;;;7.47;;
81152;SDS011;70630;45.546;10.198;2023-07-20T06:22:16;13.73;;;7.20;;
81152;SDS011;70630;45.546;10.198;2023-07-20T06:24:42;11.82;;;6.97;;
81152;SDS011;70630;45.546;10.198;2023-07-20T06:27:08;11.90;;;6.63;;
81152;SDS011;70630;45.546;10.198;2023-07-20T06:29:34;11.38;;;6.28;;
81152;SDS011;70630;45.546;10.198;2023-07-20T06:32:01;12.13;;;6.72;;
81152;SDS011;70630;45.546;10.198;2023-07-20T06:34:27;14.60;;;6.70;;
81152;SDS011;70630;45.546;10.198;2023-07-20T06:36:53;10.60;;;6.60;;
81152;SDS011;70630;45.546;10.198;2023-07-20T06:39:19;13.32;;;6.88;;
81152;SDS011;70630;45.546;10.198;2023-07-20T06:41:45;12.55;;;6.32;;
81152;SDS011;70630;45.546;10.198;2023-07-20T06:44:11;14.00;;;6.72;;
81152;SDS011;70630;45.546;10.198;2023-07-20T06:46:37;12.80;;;6.60;;
81152;SDS011;70630;45.546;10.198;2023-07-20T06:49:05;11.30;;;7.10;;
81152;SDS011;70630;45.546;10.198;2023-07-20T06:51:32;11.07;;;6.00;;
81152;SDS011;70630;45.546;10.198;2023-07-20T06:53:58;12.50;;;6.68;;
81152;SDS011;70630;45.546;10.198;2023-07-20T06:56:24;11.63;;;6.78;;
81152;SDS011;70630;45.546;10.198;2023-07-20T06:58:50;13.88;;;7.35;;
81152;SDS011;70630;45.546;10.198;2023-07-20T07:01:16;13.57;;;6.88;;
